createdAt,value
2017-02-18T00:00:10.776Z,1001.9
2017-02-18T00:00:32.105Z,1001.8
2017-02-18T00:00:53.441Z,1001.9
2017-02-18T00:01:14.801Z,1001.9
2017-02-18T00:01:36.163Z,1001.9
2017-02-18T00:01:57.523Z,1001.9
2017-02-18T00:02:18.879Z,1001.9
2017-02-18T00:02:40.222Z,1001.9
2017-02-18T00:03:01.546Z,1001.9
2017-02-18T00:03:22.873Z,1001.9
2017-02-18T00:03:44.221Z,1001.9
2017-02-18T00:04:05.589Z,1001.9
2017-02-18T00:04:26.933Z,1001.9
2017-02-18T00:04:48.269Z,1001.9
2017-02-18T00:05:09.613Z,1001.9
2017-02-18T00:05:30.971Z,1001.9
2017-02-18T00:05:52.298Z,1001.9
2017-02-18T00:06:13.652Z,1001.9
2017-02-18T00:06:35.041Z,1001.9
2017-02-18T00:06:56.376Z,1001.9
2017-02-18T00:07:17.721Z,1001.9
2017-02-18T00:07:39.076Z,1001.9
2017-02-18T00:08:00.407Z,1001.8
2017-02-18T00:08:21.737Z,1001.8
2017-02-18T00:08:43.063Z,1001.9
2017-02-18T00:09:04.415Z,1001.9
2017-02-18T00:09:25.783Z,1001.9
2017-02-18T00:09:47.128Z,1001.9
2017-02-18T00:10:08.482Z,1001.9
2017-02-18T00:10:29.811Z,1001.9
2017-02-18T00:10:51.158Z,1001.9
2017-02-18T00:11:12.491Z,1001.9
2017-02-18T00:11:33.845Z,1001.9
2017-02-18T00:11:55.203Z,1002
2017-02-18T00:12:16.553Z,1001.9
2017-02-18T00:12:37.894Z,1001.9
2017-02-18T00:12:59.211Z,1001.9
2017-02-18T00:13:20.562Z,1001.9
2017-02-18T00:13:41.913Z,1001.9
2017-02-18T00:14:03.256Z,1001.9
2017-02-18T00:14:24.629Z,1001.9
2017-02-18T00:14:45.993Z,1001.9
2017-02-18T00:15:07.318Z,1001.9
2017-02-18T00:15:28.663Z,1001.9
2017-02-18T00:15:49.995Z,1001.9
2017-02-18T00:16:11.318Z,1001.9
2017-02-18T00:16:32.683Z,1001.9
2017-02-18T00:16:54.037Z,1001.9
2017-02-18T00:17:15.410Z,1001.9
2017-02-18T00:17:36.765Z,1001.9
2017-02-18T00:17:58.128Z,1001.9
2017-02-18T00:18:19.452Z,1001.9
2017-02-18T00:18:40.807Z,1002
2017-02-18T00:19:02.207Z,1001.9
2017-02-18T00:19:23.553Z,1001.9
2017-02-18T00:19:44.960Z,1001.9
2017-02-18T00:20:06.381Z,1001.9
2017-02-18T00:20:27.704Z,1001.9
2017-02-18T00:20:49.103Z,1001.9
2017-02-18T00:21:10.571Z,1001.9
2017-02-18T00:21:31.911Z,1001.9
2017-02-18T00:21:53.239Z,1001.9
2017-02-18T00:22:14.579Z,1001.9
2017-02-18T00:22:35.910Z,1001.9
2017-02-18T00:22:57.256Z,1001.9
2017-02-18T00:23:18.646Z,1001.9
2017-02-18T00:23:39.971Z,1001.9
2017-02-18T00:24:01.380Z,1002
2017-02-18T00:24:22.743Z,1001.9
2017-02-18T00:24:44.138Z,1002
2017-02-18T00:25:05.527Z,1002
2017-02-18T00:25:26.882Z,1002
2017-02-18T00:25:48.211Z,1002
2017-02-18T00:26:09.543Z,1002
2017-02-18T00:26:30.933Z,1002
2017-02-18T00:26:52.276Z,1002
2017-02-18T00:27:13.666Z,1002
2017-02-18T00:27:35.058Z,1002
2017-02-18T00:27:56.386Z,1002
2017-02-18T00:28:17.752Z,1002
2017-02-18T00:28:39.113Z,1002
2017-02-18T00:29:00.483Z,1002
2017-02-18T00:29:21.835Z,1001.9
2017-02-18T00:29:43.192Z,1002
2017-02-18T00:30:04.589Z,1002
2017-02-18T00:30:25.968Z,1002
2017-02-18T00:30:47.308Z,1002
2017-02-18T00:31:08.692Z,1002
2017-02-18T00:31:30.032Z,1002
2017-02-18T00:31:51.373Z,1002
2017-02-18T00:32:12.713Z,1002
2017-02-18T00:32:34.053Z,1002
2017-02-18T00:32:55.389Z,1002
2017-02-18T00:33:16.744Z,1002
2017-02-18T00:33:38.085Z,1002
2017-02-18T00:33:59.488Z,1002
2017-02-18T00:34:20.859Z,1002
2017-02-18T00:34:42.222Z,1002
2017-02-18T00:35:03.575Z,1002
2017-02-18T00:35:24.959Z,1002
2017-02-18T00:35:46.340Z,1002
2017-02-18T00:36:07.669Z,1002
2017-02-18T00:36:29.014Z,1002
2017-02-18T00:36:50.355Z,1002
2017-02-18T00:37:11.732Z,1002
2017-02-18T00:37:33.096Z,1002
2017-02-18T00:37:54.445Z,1002
2017-02-18T00:38:15.778Z,1002
2017-02-18T00:38:37.138Z,1002
2017-02-18T00:38:58.501Z,1001.9
2017-02-18T00:39:19.841Z,1002
2017-02-18T00:39:41.180Z,1002
2017-02-18T00:40:02.554Z,1002
2017-02-18T00:40:23.911Z,1002
2017-02-18T00:40:45.270Z,1002
2017-02-18T00:41:06.593Z,1002
2017-02-18T00:41:27.948Z,1002
2017-02-18T00:41:49.298Z,1002
2017-02-18T00:42:10.654Z,1002
2017-02-18T00:42:32.012Z,1002
2017-02-18T00:42:53.381Z,1001.9
2017-02-18T00:43:14.759Z,1002
2017-02-18T00:43:36.092Z,1002
2017-02-18T00:43:57.451Z,1002
2017-02-18T00:44:18.845Z,1002
2017-02-18T00:44:40.214Z,1002
2017-02-18T00:45:01.562Z,1002
2017-02-18T00:45:22.911Z,1002
2017-02-18T00:45:44.251Z,1002
2017-02-18T00:46:05.620Z,1002
2017-02-18T00:46:27.020Z,1002
2017-02-18T00:46:48.343Z,1002
2017-02-18T00:47:09.656Z,1002
2017-02-18T00:47:30.996Z,1002
2017-02-18T00:47:52.350Z,1002
2017-02-18T00:48:13.723Z,1002
2017-02-18T00:48:35.036Z,1002
2017-02-18T00:48:56.383Z,1002
2017-02-18T00:49:17.767Z,1002
2017-02-18T00:49:39.116Z,1002
2017-02-18T00:50:00.464Z,1002
2017-02-18T00:50:21.862Z,1002
2017-02-18T00:50:43.191Z,1002
2017-02-18T00:51:04.533Z,1002
2017-02-18T00:51:25.876Z,1002
2017-02-18T00:51:47.236Z,1002
2017-02-18T00:52:08.605Z,1002
2017-02-18T00:52:29.972Z,1002
2017-02-18T00:52:51.335Z,1002
2017-02-18T00:53:12.678Z,1002
2017-02-18T00:53:34.020Z,1002
2017-02-18T00:53:55.378Z,1002
2017-02-18T00:54:16.753Z,1002.1
2017-02-18T00:54:38.108Z,1002.1
2017-02-18T00:54:59.499Z,1002
2017-02-18T00:55:20.864Z,1002
2017-02-18T00:55:42.171Z,1002
2017-02-18T00:56:03.523Z,1002.1
2017-02-18T00:56:24.902Z,1002
2017-02-18T00:56:46.258Z,1002
2017-02-18T00:57:07.612Z,1002.1
2017-02-18T00:57:28.955Z,1002.1
2017-02-18T00:57:50.320Z,1002
2017-02-18T00:58:11.652Z,1002
2017-02-18T00:58:33.024Z,1002
2017-02-18T00:58:54.367Z,1002
2017-02-18T00:59:15.700Z,1002.1
2017-02-18T00:59:37.055Z,1002.1
2017-02-18T00:59:58.375Z,1002.1
2017-02-18T01:00:19.730Z,1002.1
2017-02-18T01:00:41.076Z,1002.1
2017-02-18T01:01:02.450Z,1002
2017-02-18T01:01:23.807Z,1002.1
2017-02-18T01:01:45.188Z,1002
2017-02-18T01:02:06.550Z,1002
2017-02-18T01:02:27.900Z,1002.1
2017-02-18T01:02:49.966Z,1002
2017-02-18T01:03:11.309Z,1002
2017-02-18T01:03:32.672Z,1002.1
2017-02-18T01:03:54.006Z,1002.1
2017-02-18T01:04:15.354Z,1002.1
2017-02-18T01:04:36.693Z,1002.1
2017-02-18T01:04:58.045Z,1002
2017-02-18T01:05:19.403Z,1002.1
2017-02-18T01:05:40.764Z,1002
2017-02-18T01:06:02.138Z,1002.1
2017-02-18T01:06:23.496Z,1002
2017-02-18T01:06:44.855Z,1002
2017-02-18T01:07:06.221Z,1002.1
2017-02-18T01:07:27.564Z,1002
2017-02-18T01:07:48.928Z,1002
2017-02-18T01:08:10.259Z,1002
2017-02-18T01:08:31.595Z,1002.1
2017-02-18T01:08:52.909Z,1002
2017-02-18T01:09:14.269Z,1002
2017-02-18T01:09:35.622Z,1002.1
2017-02-18T01:09:56.971Z,1002
2017-02-18T01:10:18.334Z,1002.1
2017-02-18T01:10:39.682Z,1002
2017-02-18T01:11:01.089Z,1002
2017-02-18T01:11:22.448Z,1002.1
2017-02-18T01:11:43.823Z,1002
2017-02-18T01:12:05.138Z,1002.1
2017-02-18T01:12:26.505Z,1002.1
2017-02-18T01:12:47.873Z,1002.1
2017-02-18T01:13:09.249Z,1002.1
2017-02-18T01:13:30.586Z,1002.1
2017-02-18T01:13:51.933Z,1002.1
2017-02-18T01:14:13.292Z,1002.1
2017-02-18T01:14:34.633Z,1002.1
2017-02-18T01:14:56.052Z,1002.1
2017-02-18T01:15:17.408Z,1002.1
2017-02-18T01:15:38.795Z,1002.1
2017-02-18T01:16:00.173Z,1002.1
2017-02-18T01:16:21.508Z,1002.1
2017-02-18T01:16:42.875Z,1002.1
2017-02-18T01:17:04.228Z,1002.1
2017-02-18T01:17:25.574Z,1002.1
2017-02-18T01:17:46.940Z,1002.1
2017-02-18T01:18:08.289Z,1002
2017-02-18T01:18:29.640Z,1002.1
2017-02-18T01:18:50.991Z,1002.1
2017-02-18T01:19:12.348Z,1002.1
2017-02-18T01:19:33.705Z,1002
2017-02-18T01:19:55.029Z,1002.1
2017-02-18T01:20:16.409Z,1002
2017-02-18T01:20:37.738Z,1002.1
2017-02-18T01:20:59.082Z,1002.1
2017-02-18T01:21:20.499Z,1002.1
2017-02-18T01:21:41.832Z,1002.1
2017-02-18T01:22:03.179Z,1002.1
2017-02-18T01:22:24.530Z,1002
2017-02-18T01:22:45.907Z,1002.1
2017-02-18T01:23:07.268Z,1002.1
2017-02-18T01:23:28.611Z,1002.1
2017-02-18T01:23:49.949Z,1002.1
2017-02-18T01:24:11.291Z,1002
2017-02-18T01:24:32.611Z,1002.1
2017-02-18T01:24:53.967Z,1002
2017-02-18T01:25:15.333Z,1002
2017-02-18T01:25:36.679Z,1002.1
2017-02-18T01:25:58.024Z,1002
2017-02-18T01:26:19.342Z,1002
2017-02-18T01:26:40.765Z,1002
2017-02-18T01:27:02.106Z,1002
2017-02-18T01:27:23.490Z,1002.1
2017-02-18T01:27:45.224Z,1002
2017-02-18T01:28:06.566Z,1002.1
2017-02-18T01:28:27.900Z,1002
2017-02-18T01:28:49.236Z,1002
2017-02-18T01:29:10.592Z,1002
2017-02-18T01:29:31.944Z,1002
2017-02-18T01:29:53.362Z,1002
2017-02-18T01:30:14.711Z,1002
2017-02-18T01:30:36.040Z,1002.1
2017-02-18T01:30:57.399Z,1002
2017-02-18T01:31:18.737Z,1002
2017-02-18T01:31:40.124Z,1002
2017-02-18T01:32:01.511Z,1002
2017-02-18T01:32:22.925Z,1002
2017-02-18T01:32:44.281Z,1002
2017-02-18T01:33:05.671Z,1002
2017-02-18T01:33:27.041Z,1002
2017-02-18T01:33:48.397Z,1002
2017-02-18T01:34:09.734Z,1002
2017-02-18T01:34:31.075Z,1002
2017-02-18T01:34:52.399Z,1002
2017-02-18T01:35:13.755Z,1002
2017-02-18T01:35:35.142Z,1002
2017-02-18T01:35:56.499Z,1002
2017-02-18T01:36:17.863Z,1002
2017-02-18T01:36:39.207Z,1002
2017-02-18T01:37:00.557Z,1002
2017-02-18T01:37:21.932Z,1002
2017-02-18T01:37:43.317Z,1002
2017-02-18T01:38:04.687Z,1002
2017-02-18T01:38:26.029Z,1002
2017-02-18T01:38:47.386Z,1002
2017-02-18T01:39:08.743Z,1002.1
2017-02-18T01:39:30.092Z,1002
2017-02-18T01:39:51.466Z,1002
2017-02-18T01:40:12.813Z,1002
2017-02-18T01:40:34.165Z,1002.1
2017-02-18T01:40:55.653Z,1002.1
2017-02-18T01:41:17.015Z,1002.1
2017-02-18T01:41:38.372Z,1002
2017-02-18T01:41:59.702Z,1002.1
2017-02-18T01:42:21.078Z,1002.1
2017-02-18T01:42:42.432Z,1002
2017-02-18T01:43:03.780Z,1002
2017-02-18T01:43:25.140Z,1002.1
2017-02-18T01:43:46.506Z,1002
2017-02-18T01:44:07.885Z,1002.1
2017-02-18T01:44:29.239Z,1002.1
2017-02-18T01:44:50.566Z,1002.1
2017-02-18T01:45:11.901Z,1002.1
2017-02-18T01:45:33.237Z,1002.1
2017-02-18T01:45:54.581Z,1002
2017-02-18T01:46:15.988Z,1002.1
2017-02-18T01:46:37.347Z,1002.1
2017-02-18T01:46:58.744Z,1002.1
2017-02-18T01:47:20.132Z,1002.1
2017-02-18T01:47:41.480Z,1002.1
2017-02-18T01:48:02.837Z,1002.1
2017-02-18T01:48:24.198Z,1002.1
2017-02-18T01:48:45.566Z,1002.1
2017-02-18T01:49:06.898Z,1002.1
2017-02-18T01:49:28.223Z,1002.1
2017-02-18T01:49:49.570Z,1002.1
2017-02-18T01:50:10.926Z,1002.1
2017-02-18T01:50:32.314Z,1002.1
2017-02-18T01:50:53.665Z,1002.2
2017-02-18T01:51:15.032Z,1002.1
2017-02-18T01:51:36.391Z,1002.1
2017-02-18T01:51:57.732Z,1002.1
2017-02-18T01:52:19.142Z,1002.1
2017-02-18T01:52:40.497Z,1002.1
2017-02-18T01:53:01.820Z,1002.1
2017-02-18T01:53:23.135Z,1002.1
2017-02-18T01:53:44.466Z,1002.1
2017-02-18T01:54:05.819Z,1002.1
2017-02-18T01:54:27.147Z,1002.1
2017-02-18T01:54:48.532Z,1002.1
2017-02-18T01:55:09.884Z,1002.1
2017-02-18T01:55:31.224Z,1002.1
2017-02-18T01:55:52.587Z,1002.1
2017-02-18T01:56:13.945Z,1002.1
2017-02-18T01:56:35.299Z,1002.1
2017-02-18T01:56:56.657Z,1002.1
2017-02-18T01:57:17.995Z,1002.1
2017-02-18T01:57:39.342Z,1002.1
2017-02-18T01:58:00.711Z,1002.1
2017-02-18T01:58:22.080Z,1002.1
2017-02-18T01:58:43.445Z,1002.1
2017-02-18T01:59:04.777Z,1002.1
2017-02-18T01:59:26.109Z,1002.1
2017-02-18T01:59:47.452Z,1002.1
2017-02-18T02:00:08.785Z,1002.1
2017-02-18T02:00:30.136Z,1002.1
2017-02-18T02:00:51.505Z,1002.1
2017-02-18T02:01:12.895Z,1002.1
2017-02-18T02:01:34.248Z,1002.1
2017-02-18T02:01:55.613Z,1002.1
2017-02-18T02:02:16.992Z,1002.1
2017-02-18T02:02:38.339Z,1002.1
2017-02-18T02:02:59.679Z,1002.1
2017-02-18T02:03:21.056Z,1002.1
2017-02-18T02:03:42.406Z,1002.1
2017-02-18T02:04:03.742Z,1002.1
2017-02-18T02:04:25.122Z,1002.1
2017-02-18T02:04:46.529Z,1002.1
2017-02-18T02:05:07.914Z,1002.1
2017-02-18T02:05:29.251Z,1002.1
2017-02-18T02:05:50.693Z,1002.1
2017-02-18T02:06:12.083Z,1002.1
2017-02-18T02:06:33.421Z,1002.1
2017-02-18T02:06:54.777Z,1002.1
2017-02-18T02:07:16.099Z,1002.1
2017-02-18T02:07:37.455Z,1002.1
2017-02-18T02:07:58.812Z,1002.1
2017-02-18T02:08:20.165Z,1002.1
2017-02-18T02:08:41.508Z,1002.1
2017-02-18T02:09:02.892Z,1002.1
2017-02-18T02:09:24.266Z,1002.1
2017-02-18T02:09:45.611Z,1002.1
2017-02-18T02:10:06.994Z,1002.1
2017-02-18T02:10:28.335Z,1002.1
2017-02-18T02:10:49.677Z,1002.1
2017-02-18T02:11:11.067Z,1002
2017-02-18T02:11:32.406Z,1002.1
2017-02-18T02:11:53.805Z,1002
2017-02-18T02:12:15.151Z,1002.1
2017-02-18T02:12:36.521Z,1002.1
2017-02-18T02:12:57.855Z,1002.1
2017-02-18T02:13:19.157Z,1002.1
2017-02-18T02:13:40.531Z,1002
2017-02-18T02:14:01.862Z,1002.1
2017-02-18T02:14:23.277Z,1002.1
2017-02-18T02:14:44.655Z,1002.1
2017-02-18T02:15:05.979Z,1002
2017-02-18T02:15:27.394Z,1002.1
2017-02-18T02:15:48.784Z,1002.1
2017-02-18T02:16:10.155Z,1002
2017-02-18T02:16:31.570Z,1002.1
2017-02-18T02:16:52.897Z,1002
2017-02-18T02:17:14.237Z,1002
2017-02-18T02:17:35.601Z,1002
2017-02-18T02:17:56.938Z,1002
2017-02-18T02:18:18.287Z,1002
2017-02-18T02:18:39.653Z,1002.1
2017-02-18T02:19:00.986Z,1002
2017-02-18T02:19:22.328Z,1002.1
2017-02-18T02:19:43.675Z,1002
2017-02-18T02:20:05.033Z,1002.1
2017-02-18T02:20:26.418Z,1002.1
2017-02-18T02:20:50.709Z,1002
2017-02-18T02:21:12.068Z,1002
2017-02-18T02:21:33.395Z,1002
2017-02-18T02:21:54.781Z,1002.1
2017-02-18T02:22:16.129Z,1002
2017-02-18T02:22:37.479Z,1002.1
2017-02-18T02:22:58.837Z,1002
2017-02-18T02:23:20.234Z,1002.1
2017-02-18T02:23:41.596Z,1002
2017-02-18T02:24:02.941Z,1002
2017-02-18T02:24:24.281Z,1002.1
2017-02-18T02:24:45.661Z,1002
2017-02-18T02:25:07.040Z,1002
2017-02-18T02:25:28.391Z,1002
2017-02-18T02:25:49.716Z,1002.1
2017-02-18T02:26:11.060Z,1002.1
2017-02-18T02:26:32.416Z,1002.1
2017-02-18T02:26:53.796Z,1002
2017-02-18T02:27:15.189Z,1002.1
2017-02-18T02:27:36.529Z,1002.1
2017-02-18T02:27:57.911Z,1002.1
2017-02-18T02:28:19.240Z,1002.1
2017-02-18T02:28:40.600Z,1002.1
2017-02-18T02:29:01.996Z,1002.1
2017-02-18T02:29:23.368Z,1002.1
2017-02-18T02:29:44.703Z,1002.1
2017-02-18T02:30:06.075Z,1002.1
2017-02-18T02:30:27.433Z,1002
2017-02-18T02:30:48.877Z,1002.1
2017-02-18T02:31:10.229Z,1002.1
2017-02-18T02:31:31.580Z,1002.1
2017-02-18T02:31:52.914Z,1002.1
2017-02-18T02:32:14.282Z,1002.1
2017-02-18T02:32:35.636Z,1002.1
2017-02-18T02:32:56.983Z,1002.1
2017-02-18T02:33:18.338Z,1002.1
2017-02-18T02:33:39.676Z,1002.1
2017-02-18T02:34:01.054Z,1002.1
2017-02-18T02:34:22.389Z,1002.1
2017-02-18T02:34:43.769Z,1002
2017-02-18T02:35:05.093Z,1002.1
2017-02-18T02:35:26.496Z,1002.1
2017-02-18T02:35:47.855Z,1002.1
2017-02-18T02:36:09.223Z,1002.1
2017-02-18T02:36:31.426Z,1002.1
2017-02-18T02:36:52.813Z,1002.1
2017-02-18T02:37:14.216Z,1002.1
2017-02-18T02:37:35.558Z,1002.1
2017-02-18T02:37:56.914Z,1002.1
2017-02-18T02:38:18.278Z,1002.1
2017-02-18T02:38:39.629Z,1002.1
2017-02-18T02:39:01.005Z,1002.1
2017-02-18T02:39:22.336Z,1002.1
2017-02-18T02:39:43.678Z,1002.1
2017-02-18T02:40:05.025Z,1002.1
2017-02-18T02:40:26.373Z,1002.1
2017-02-18T02:40:47.732Z,1002.1
2017-02-18T02:41:09.084Z,1002.1
2017-02-18T02:41:30.427Z,1002.1
2017-02-18T02:41:51.792Z,1002.1
2017-02-18T02:42:13.136Z,1002.1
2017-02-18T02:42:34.538Z,1002.1
2017-02-18T02:42:55.936Z,1002.1
2017-02-18T02:43:17.318Z,1002.2
2017-02-18T02:43:38.647Z,1002.1
2017-02-18T02:44:00.015Z,1002.1
2017-02-18T02:44:21.357Z,1002.2
2017-02-18T02:44:42.701Z,1002.2
2017-02-18T02:45:04.028Z,1002.1
2017-02-18T02:45:25.396Z,1002.2
2017-02-18T02:45:46.772Z,1002.2
2017-02-18T02:46:08.103Z,1002.2
2017-02-18T02:46:29.476Z,1002.2
2017-02-18T02:46:50.852Z,1002.2
2017-02-18T02:47:12.202Z,1002.2
2017-02-18T02:47:33.556Z,1002.2
2017-02-18T02:47:54.929Z,1002.2
2017-02-18T02:48:16.303Z,1002.2
2017-02-18T02:48:37.686Z,1002.2
2017-02-18T02:48:59.023Z,1002.1
2017-02-18T02:49:20.401Z,1002.2
2017-02-18T02:49:41.778Z,1002.2
2017-02-18T02:50:03.134Z,1002.2
2017-02-18T02:50:24.496Z,1002.2
2017-02-18T02:50:45.834Z,1002.1
2017-02-18T02:51:07.198Z,1002.2
2017-02-18T02:51:28.562Z,1002.2
2017-02-18T02:51:49.954Z,1002.2
2017-02-18T02:52:11.288Z,1002.2
2017-02-18T02:52:32.631Z,1002.2
2017-02-18T02:52:53.981Z,1002.2
2017-02-18T02:53:15.324Z,1002.2
2017-02-18T02:53:36.704Z,1002.1
2017-02-18T02:53:58.037Z,1002.2
2017-02-18T02:54:19.441Z,1002.2
2017-02-18T02:54:40.763Z,1002.2
2017-02-18T02:55:02.099Z,1002.2
2017-02-18T02:55:23.433Z,1002.2
2017-02-18T02:55:44.783Z,1002.2
2017-02-18T02:56:06.124Z,1002.2
2017-02-18T02:56:27.481Z,1002.2
2017-02-18T02:56:48.889Z,1002.2
2017-02-18T02:57:10.255Z,1002.2
2017-02-18T02:57:31.620Z,1002.2
2017-02-18T02:57:52.938Z,1002.3
2017-02-18T02:58:14.313Z,1002.3
2017-02-18T02:58:35.661Z,1002.3
2017-02-18T02:58:57.001Z,1002.3
2017-02-18T02:59:18.361Z,1002.2
2017-02-18T02:59:39.691Z,1002.2
2017-02-18T03:00:01.074Z,1002.2
2017-02-18T03:00:22.421Z,1002.2
2017-02-18T03:00:43.765Z,1002.3
2017-02-18T03:01:05.141Z,1002.3
2017-02-18T03:01:26.467Z,1002.2
2017-02-18T03:01:47.848Z,1002.2
2017-02-18T03:02:09.186Z,1002.3
2017-02-18T03:02:30.549Z,1002.2
2017-02-18T03:02:51.906Z,1002.2
2017-02-18T03:03:13.245Z,1002.2
2017-02-18T03:03:34.644Z,1002.2
2017-02-18T03:03:55.981Z,1002.3
2017-02-18T03:04:17.343Z,1002.3
2017-02-18T03:04:38.727Z,1002.2
2017-02-18T03:05:00.071Z,1002.2
2017-02-18T03:05:21.438Z,1002.2
2017-02-18T03:05:42.788Z,1002.2
2017-02-18T03:06:04.147Z,1002.2
2017-02-18T03:06:25.477Z,1002.2
2017-02-18T03:06:46.832Z,1002.2
2017-02-18T03:07:08.169Z,1002.3
2017-02-18T03:07:29.514Z,1002.3
2017-02-18T03:07:50.854Z,1002.3
2017-02-18T03:08:12.210Z,1002.3
2017-02-18T03:08:33.557Z,1002.3
2017-02-18T03:08:54.970Z,1002.3
2017-02-18T03:09:16.327Z,1002.3
2017-02-18T03:09:37.704Z,1002.3
2017-02-18T03:09:59.048Z,1002.3
2017-02-18T03:10:20.377Z,1002.3
2017-02-18T03:10:41.721Z,1002.3
2017-02-18T03:11:03.072Z,1002.3
2017-02-18T03:11:24.400Z,1002.3
2017-02-18T03:11:45.747Z,1002.3
2017-02-18T03:12:07.105Z,1002.3
2017-02-18T03:12:28.456Z,1002.2
2017-02-18T03:12:49.822Z,1002.2
2017-02-18T03:13:11.224Z,1002.3
2017-02-18T03:13:32.572Z,1002.3
2017-02-18T03:13:53.956Z,1002.3
2017-02-18T03:14:15.284Z,1002.3
2017-02-18T03:14:36.649Z,1002.3
2017-02-18T03:14:57.984Z,1002.3
2017-02-18T03:15:19.332Z,1002.3
2017-02-18T03:15:40.701Z,1002.3
2017-02-18T03:16:02.030Z,1002.3
2017-02-18T03:16:23.397Z,1002.3
2017-02-18T03:16:44.717Z,1002.3
2017-02-18T03:17:06.062Z,1002.3
2017-02-18T03:17:27.387Z,1002.3
2017-02-18T03:17:48.755Z,1002.3
2017-02-18T03:18:10.086Z,1002.3
2017-02-18T03:18:31.401Z,1002.3
2017-02-18T03:18:52.799Z,1002.3
2017-02-18T03:19:14.144Z,1002.3
2017-02-18T03:19:35.481Z,1002.3
2017-02-18T03:19:56.847Z,1002.3
2017-02-18T03:20:18.200Z,1002.3
2017-02-18T03:20:39.534Z,1002.3
2017-02-18T03:21:00.928Z,1002.3
2017-02-18T03:21:22.273Z,1002.3
2017-02-18T03:21:43.602Z,1002.3
2017-02-18T03:22:04.962Z,1002.4
2017-02-18T03:22:26.290Z,1002.3
2017-02-18T03:22:47.657Z,1002.4
2017-02-18T03:23:08.987Z,1002.3
2017-02-18T03:23:30.347Z,1002.3
2017-02-18T03:23:51.698Z,1002.3
2017-02-18T03:24:13.093Z,1002.3
2017-02-18T03:24:34.446Z,1002.4
2017-02-18T03:24:55.774Z,1002.3
2017-02-18T03:25:17.088Z,1002.3
2017-02-18T03:25:38.444Z,1002.3
2017-02-18T03:25:59.801Z,1002.4
2017-02-18T03:26:21.145Z,1002.3
2017-02-18T03:26:42.484Z,1002.3
2017-02-18T03:27:03.811Z,1002.3
2017-02-18T03:27:25.169Z,1002.3
2017-02-18T03:27:46.547Z,1002.3
2017-02-18T03:28:07.923Z,1002.3
2017-02-18T03:28:29.246Z,1002.3
2017-02-18T03:28:51.506Z,1002.4
2017-02-18T03:29:12.913Z,1002.3
2017-02-18T03:29:34.251Z,1002.4
2017-02-18T03:29:55.633Z,1002.4
2017-02-18T03:30:17.003Z,1002.4
2017-02-18T03:30:38.334Z,1002.3
2017-02-18T03:30:59.700Z,1002.3
2017-02-18T03:31:21.047Z,1002.4
2017-02-18T03:31:42.399Z,1002.4
2017-02-18T03:32:04.600Z,1002.4
2017-02-18T03:32:25.940Z,1002.3
2017-02-18T03:32:47.347Z,1002.3
2017-02-18T03:33:08.696Z,1002.3
2017-02-18T03:33:30.145Z,1002.3
2017-02-18T03:33:51.514Z,1002.3
2017-02-18T03:34:12.916Z,1002.4
2017-02-18T03:34:34.257Z,1002.4
2017-02-18T03:34:55.607Z,1002.3
2017-02-18T03:35:17.004Z,1002.4
2017-02-18T03:35:38.361Z,1002.3
2017-02-18T03:35:59.703Z,1002.4
2017-02-18T03:36:21.055Z,1002.3
2017-02-18T03:36:42.400Z,1002.3
2017-02-18T03:37:03.763Z,1002.3
2017-02-18T03:37:25.126Z,1002.3
2017-02-18T03:37:46.474Z,1002.3
2017-02-18T03:38:07.829Z,1002.4
2017-02-18T03:38:29.174Z,1002.3
2017-02-18T03:38:50.497Z,1002.3
2017-02-18T03:39:11.850Z,1002.3
2017-02-18T03:39:33.214Z,1002.3
2017-02-18T03:39:54.569Z,1002.4
2017-02-18T03:40:15.943Z,1002.4
2017-02-18T03:40:37.299Z,1002.3
2017-02-18T03:40:58.646Z,1002.4
2017-02-18T03:41:20.020Z,1002.3
2017-02-18T03:41:41.349Z,1002.3
2017-02-18T03:42:02.749Z,1002.3
2017-02-18T03:42:24.092Z,1002.3
2017-02-18T03:42:45.541Z,1002.3
2017-02-18T03:43:06.914Z,1002.3
2017-02-18T03:43:28.267Z,1002.3
2017-02-18T03:43:49.603Z,1002.4
2017-02-18T03:44:10.945Z,1002.3
2017-02-18T03:44:32.290Z,1002.3
2017-02-18T03:44:53.631Z,1002.4
2017-02-18T03:45:15.593Z,1002.3
2017-02-18T03:45:36.941Z,1002.3
2017-02-18T03:45:58.294Z,1002.4
2017-02-18T03:46:19.629Z,1002.4
2017-02-18T03:46:40.979Z,1002.4
2017-02-18T03:47:02.348Z,1002.4
2017-02-18T03:47:23.709Z,1002.4
2017-02-18T03:47:45.041Z,1002.4
2017-02-18T03:48:06.444Z,1002.4
2017-02-18T03:48:27.817Z,1002.4
2017-02-18T03:48:49.238Z,1002.4
2017-02-18T03:49:10.589Z,1002.4
2017-02-18T03:49:31.911Z,1002.4
2017-02-18T03:49:53.254Z,1002.4
2017-02-18T03:50:14.607Z,1002.4
2017-02-18T03:50:35.989Z,1002.4
2017-02-18T03:50:57.326Z,1002.4
2017-02-18T03:51:18.662Z,1002.4
2017-02-18T03:51:40.027Z,1002.4
2017-02-18T03:52:01.355Z,1002.4
2017-02-18T03:52:22.697Z,1002.4
2017-02-18T03:52:44.021Z,1002.4
2017-02-18T03:53:05.345Z,1002.4
2017-02-18T03:53:26.748Z,1002.4
2017-02-18T03:53:48.110Z,1002.4
2017-02-18T03:54:09.443Z,1002.4
2017-02-18T03:54:30.796Z,1002.5
2017-02-18T03:54:52.151Z,1002.5
2017-02-18T03:55:13.496Z,1002.4
2017-02-18T03:55:34.844Z,1002.5
2017-02-18T03:55:56.184Z,1002.5
2017-02-18T03:56:17.594Z,1002.5
2017-02-18T03:56:38.935Z,1002.5
2017-02-18T03:57:00.279Z,1002.5
2017-02-18T03:57:21.637Z,1002.5
2017-02-18T03:57:42.954Z,1002.5
2017-02-18T03:58:04.291Z,1002.5
2017-02-18T03:58:25.675Z,1002.5
2017-02-18T03:58:46.991Z,1002.5
2017-02-18T03:59:08.308Z,1002.5
2017-02-18T03:59:29.644Z,1002.5
2017-02-18T03:59:50.974Z,1002.5
2017-02-18T04:00:12.393Z,1002.5
2017-02-18T04:00:33.734Z,1002.5
2017-02-18T04:00:55.063Z,1002.5
2017-02-18T04:01:16.411Z,1002.6
2017-02-18T04:01:37.777Z,1002.5
2017-02-18T04:01:59.145Z,1002.5
2017-02-18T04:02:20.519Z,1002.5
2017-02-18T04:02:41.847Z,1002.5
2017-02-18T04:03:03.249Z,1002.5
2017-02-18T04:03:24.615Z,1002.5
2017-02-18T04:03:45.959Z,1002.4
2017-02-18T04:04:07.351Z,1002.5
2017-02-18T04:04:28.705Z,1002.5
2017-02-18T04:04:50.052Z,1002.5
2017-02-18T04:05:11.419Z,1002.5
2017-02-18T04:05:32.757Z,1002.5
2017-02-18T04:05:54.137Z,1002.5
2017-02-18T04:06:16.398Z,1002.5
2017-02-18T04:06:37.747Z,1002.5
2017-02-18T04:06:59.115Z,1002.5
2017-02-18T04:07:20.446Z,1002.5
2017-02-18T04:07:41.796Z,1002.5
2017-02-18T04:08:03.199Z,1002.5
2017-02-18T04:08:24.552Z,1002.5
2017-02-18T04:08:45.893Z,1002.5
2017-02-18T04:09:07.250Z,1002.5
2017-02-18T04:09:28.599Z,1002.5
2017-02-18T04:09:49.969Z,1002.5
2017-02-18T04:10:11.310Z,1002.5
2017-02-18T04:10:32.658Z,1002.5
2017-02-18T04:10:53.992Z,1002.5
2017-02-18T04:11:15.357Z,1002.5
2017-02-18T04:11:36.709Z,1002.5
2017-02-18T04:11:58.121Z,1002.5
2017-02-18T04:12:19.500Z,1002.5
2017-02-18T04:12:40.873Z,1002.5
2017-02-18T04:13:02.227Z,1002.5
2017-02-18T04:13:23.590Z,1002.5
2017-02-18T04:13:44.939Z,1002.6
2017-02-18T04:14:06.332Z,1002.6
2017-02-18T04:14:27.670Z,1002.5
2017-02-18T04:14:49.003Z,1002.5
2017-02-18T04:15:10.344Z,1002.5
2017-02-18T04:15:31.722Z,1002.5
2017-02-18T04:15:53.062Z,1002.5
2017-02-18T04:16:14.436Z,1002.6
2017-02-18T04:16:35.796Z,1002.5
2017-02-18T04:16:57.213Z,1002.5
2017-02-18T04:17:18.549Z,1002.5
2017-02-18T04:17:39.900Z,1002.6
2017-02-18T04:18:01.233Z,1002.5
2017-02-18T04:18:22.567Z,1002.6
2017-02-18T04:18:43.947Z,1002.6
2017-02-18T04:19:05.299Z,1002.5
2017-02-18T04:19:26.683Z,1002.5
2017-02-18T04:19:48.036Z,1002.5
2017-02-18T04:20:09.406Z,1002.6
2017-02-18T04:20:30.786Z,1002.6
2017-02-18T04:20:52.152Z,1002.5
2017-02-18T04:21:13.506Z,1002.6
2017-02-18T04:21:34.848Z,1002.6
2017-02-18T04:21:56.172Z,1002.6
2017-02-18T04:22:17.524Z,1002.6
2017-02-18T04:22:38.874Z,1002.6
2017-02-18T04:23:00.223Z,1002.6
2017-02-18T04:23:21.560Z,1002.6
2017-02-18T04:23:42.928Z,1002.6
2017-02-18T04:24:04.269Z,1002.6
2017-02-18T04:24:25.606Z,1002.7
2017-02-18T04:24:47.003Z,1002.6
2017-02-18T04:25:08.330Z,1002.6
2017-02-18T04:25:29.675Z,1002.6
2017-02-18T04:25:51.027Z,1002.6
2017-02-18T04:26:12.406Z,1002.6
2017-02-18T04:26:33.745Z,1002.6
2017-02-18T04:26:55.113Z,1002.6
2017-02-18T04:27:16.433Z,1002.6
2017-02-18T04:27:37.787Z,1002.6
2017-02-18T04:27:59.140Z,1002.7
2017-02-18T04:28:20.477Z,1002.7
2017-02-18T04:28:41.826Z,1002.7
2017-02-18T04:29:03.161Z,1002.7
2017-02-18T04:29:24.497Z,1002.7
2017-02-18T04:29:45.852Z,1002.7
2017-02-18T04:30:07.221Z,1002.7
2017-02-18T04:30:28.588Z,1002.7
2017-02-18T04:30:49.962Z,1002.7